createdAt,value
2019-05-22T00:02:29.068Z,25.12
2019-05-22T00:05:09.084Z,25.33
2019-05-22T00:07:38.605Z,23.27
2019-05-22T00:10:10.688Z,26.93
2019-05-22T00:12:46.614Z,22.17
2019-05-22T00:15:16.492Z,25.45
2019-05-22T00:17:46.624Z,24.25
2019-05-22T00:20:16.244Z,24.87
2019-05-22T00:22:47.230Z,26.45
2019-05-22T00:25:20.887Z,21.62
2019-05-22T00:27:53.381Z,22.65
2019-05-22T00:30:25.463Z,23.55
2019-05-22T00:32:56.333Z,27.05
2019-05-22T00:35:26.997Z,28.17
2019-05-22T00:37:57.075Z,26.65
2019-05-22T00:40:29.284Z,26.85
2019-05-22T00:43:04.173Z,25.45
2019-05-22T00:45:31.904Z,28.65
2019-05-22T00:48:03.122Z,27.10
2019-05-22T00:50:40.644Z,30.52
2019-05-22T00:53:28.918Z,29.90
2019-05-22T00:56:15.875Z,26.30
2019-05-22T00:58:52.253Z,30.33
2019-05-22T01:01:26.655Z,31.52
2019-05-22T01:03:57.464Z,26.40
2019-05-22T01:06:29.874Z,24.55
2019-05-22T01:09:02.785Z,27.30
2019-05-22T01:11:32.549Z,28.50
2019-05-22T01:14:02.289Z,31.48
2019-05-22T01:16:32.854Z,31.00
2019-05-22T01:19:03.572Z,31.95
2019-05-22T01:21:34.782Z,28.98
2019-05-22T01:24:04.373Z,32.57
2019-05-22T01:26:35.615Z,29.72
2019-05-22T01:29:05.838Z,26.90
2019-05-22T01:31:39.453Z,30.08
2019-05-22T01:34:12.758Z,30.83
2019-05-22T01:36:46.840Z,28.62
2019-05-22T01:39:47.341Z,30.65
2019-05-22T01:42:23.369Z,28.73
2019-05-22T01:45:04.449Z,25.72
2019-05-22T01:47:35.763Z,28.87
2019-05-22T01:50:07.118Z,24.17
2019-05-22T01:52:38.987Z,25.65
2019-05-22T01:55:09.804Z,34.13
2019-05-22T01:57:41.282Z,29.90
2019-05-22T02:00:11.192Z,29.82
2019-05-22T02:02:42.731Z,29.07
2019-05-22T02:05:12.166Z,35.65
2019-05-22T02:07:42.522Z,27.90
2019-05-22T02:10:17.573Z,28.50
2019-05-22T02:12:54.878Z,24.98
2019-05-22T02:15:25.115Z,27.80
2019-05-22T02:17:56.567Z,27.13
2019-05-22T02:20:28.207Z,34.10
2019-05-22T02:22:58.165Z,24.35
2019-05-22T02:25:28.838Z,31.73
2019-05-22T02:27:58.476Z,26.42
2019-05-22T02:30:30.722Z,30.37
2019-05-22T02:33:01.284Z,31.57
2019-05-22T02:35:30.805Z,29.50
2019-05-22T02:38:00.521Z,29.30
2019-05-22T02:40:33.175Z,25.85
2019-05-22T02:43:03.510Z,30.62
2019-05-22T02:45:33.146Z,33.00
2019-05-22T02:48:04.062Z,28.32
2019-05-22T02:50:34.602Z,22.75
2019-05-22T02:53:07.421Z,20.68
2019-05-22T02:55:37.649Z,26.47
2019-05-22T02:58:07.654Z,27.85
2019-05-22T03:01:04.921Z,27.85
2019-05-22T03:03:36.644Z,30.35
2019-05-22T03:06:12.859Z,29.70
2019-05-22T03:09:10.117Z,22.97
2019-05-22T03:11:42.534Z,25.30
2019-05-22T03:14:13.696Z,27.75
2019-05-22T03:16:56.359Z,28.00
2019-05-22T03:19:33.579Z,31.90
2019-05-22T03:22:07.698Z,24.75
2019-05-22T03:24:37.897Z,21.85
2019-05-22T03:27:09.325Z,24.12
2019-05-22T03:29:53.357Z,34.05
2019-05-22T03:32:24.534Z,34.58
2019-05-22T03:34:54.940Z,28.00
2019-05-22T03:37:24.600Z,23.37
2019-05-22T03:39:53.922Z,31.37
2019-05-22T03:42:24.514Z,26.90
2019-05-22T03:44:55.747Z,23.52
2019-05-22T03:47:26.710Z,23.22
2019-05-22T03:49:56.624Z,26.62
2019-05-22T03:52:26.317Z,24.05
2019-05-22T03:54:55.774Z,33.53
2019-05-22T03:57:25.746Z,28.92
2019-05-22T03:59:55.302Z,27.27
2019-05-22T04:02:24.581Z,26.87
2019-05-22T04:04:54.265Z,27.58
2019-05-22T04:07:24.230Z,24.40
2019-05-22T04:09:53.544Z,24.05
2019-05-22T04:12:23.556Z,26.15
2019-05-22T04:14:52.997Z,27.53
2019-05-22T04:17:24.365Z,26.52
2019-05-22T04:19:54.377Z,23.90
2019-05-22T04:22:23.937Z,27.43
2019-05-22T04:24:53.416Z,28.90
2019-05-22T04:27:22.657Z,25.97
2019-05-22T04:29:54.013Z,25.10
2019-05-22T04:32:31.833Z,21.02
2019-05-22T04:35:01.282Z,29.40
2019-05-22T04:37:30.816Z,24.07
2019-05-22T04:40:43.441Z,26.05
2019-05-22T04:43:13.721Z,25.77
2019-05-22T04:45:43.772Z,25.88
2019-05-22T04:48:14.165Z,23.32
2019-05-22T04:50:43.473Z,25.55
2019-05-22T04:53:13.034Z,23.90
2019-05-22T04:55:42.840Z,29.82
2019-05-22T04:58:13.943Z,22.20
2019-05-22T05:00:43.102Z,19.85
2019-05-22T05:03:13.075Z,26.73
2019-05-22T05:05:43.593Z,26.00
2019-05-22T05:08:14.670Z,24.35
2019-05-22T05:10:46.408Z,29.83
2019-05-22T05:13:16.846Z,26.07
2019-05-22T05:15:46.183Z,28.70
2019-05-22T05:18:15.544Z,28.65
2019-05-22T05:20:45.071Z,22.55
2019-05-22T05:23:14.720Z,27.98
2019-05-22T05:25:44.886Z,26.90
2019-05-22T05:28:15.198Z,28.77
2019-05-22T05:30:44.497Z,28.62
2019-05-22T05:33:13.948Z,28.35
2019-05-22T05:35:43.953Z,31.05
2019-05-22T05:38:14.117Z,28.30
2019-05-22T05:40:43.798Z,29.37
2019-05-22T05:43:17.045Z,25.15
2019-05-22T05:45:49.469Z,28.83
2019-05-22T05:48:22.656Z,28.27
2019-05-22T05:51:42.977Z,27.50
2019-05-22T05:54:23.340Z,27.15
2019-05-22T05:56:55.318Z,26.85
2019-05-22T06:04:35.129Z,21.40
2019-05-22T06:07:20.885Z,20.00
2019-05-22T06:10:23.693Z,25.07
2019-05-22T06:20:42.047Z,27.40
2019-05-22T06:23:52.187Z,25.15
2019-05-22T06:26:51.142Z,23.47
2019-05-22T06:29:22.318Z,26.07
2019-05-22T06:32:16.091Z,25.10
2019-05-22T06:34:46.118Z,21.80
2019-05-22T06:37:28.863Z,26.57
2019-05-22T06:39:58.997Z,20.50
2019-05-22T06:42:29.250Z,19.70
2019-05-22T06:44:59.007Z,21.50
2019-05-22T06:47:28.574Z,23.70
2019-05-22T06:49:58.574Z,22.57
2019-05-22T06:52:28.863Z,23.03
2019-05-22T06:54:58.716Z,25.37
2019-05-22T06:57:29.552Z,23.20
2019-05-22T07:00:13.376Z,18.03
2019-05-22T07:02:33.782Z,21.90
2019-05-22T07:05:03.743Z,23.33
2019-05-22T07:07:32.965Z,21.70
2019-05-22T07:10:03.048Z,24.37
2019-05-22T07:12:34.913Z,24.30
2019-05-22T07:15:28.398Z,22.40
2019-05-22T07:17:58.722Z,20.87
2019-05-22T07:20:32.435Z,24.77
2019-05-22T07:23:03.863Z,25.20
2019-05-22T07:25:36.410Z,25.17
2019-05-22T07:28:07.979Z,23.37
2019-05-22T07:30:37.898Z,24.77
2019-05-22T07:33:07.346Z,25.73
2019-05-22T07:35:56.476Z,24.27
2019-05-22T07:38:08.391Z,23.10
2019-05-22T07:40:37.995Z,23.03
2019-05-22T07:43:07.803Z,23.90
2019-05-22T07:45:37.286Z,25.23
2019-05-22T07:48:07.977Z,24.40
2019-05-22T07:50:40.631Z,24.13
2019-05-22T07:53:10.638Z,23.20
2019-05-22T07:55:40.673Z,23.43
2019-05-22T07:58:13.261Z,24.17
2019-05-22T08:00:47.836Z,23.60
2019-05-22T08:03:17.101Z,21.10
2019-05-22T08:05:52.886Z,24.77
2019-05-22T08:08:23.781Z,24.17
2019-05-22T08:10:54.483Z,24.40
2019-05-22T08:13:24.739Z,24.07
2019-05-22T08:18:22.651Z,24.80
2019-05-22T08:20:52.181Z,25.27
2019-05-22T08:23:23.167Z,25.57
2019-05-22T08:25:52.986Z,24.47
2019-05-22T08:28:22.524Z,25.17
2019-05-22T08:30:52.714Z,23.95
2019-05-22T08:33:23.518Z,22.70
2019-05-22T08:35:52.814Z,22.00
2019-05-22T08:38:29.046Z,19.23
2019-05-22T08:41:00.686Z,21.10
2019-05-22T08:43:31.026Z,19.67
2019-05-22T08:46:00.709Z,21.37
2019-05-22T08:48:31.395Z,21.05
2019-05-22T08:51:01.287Z,20.68
2019-05-22T08:53:45.962Z,20.27
2019-05-22T08:56:03.450Z,20.17
2019-05-22T08:58:33.632Z,19.60
2019-05-22T09:01:03.456Z,18.52
2019-05-22T09:03:32.626Z,18.98
2019-05-22T09:06:02.429Z,18.03
2019-05-22T09:08:31.892Z,18.05
2019-05-22T09:11:01.204Z,16.97
2019-05-22T09:13:30.398Z,19.77
2019-05-22T09:16:01.940Z,18.87
2019-05-22T09:18:31.560Z,15.17
2019-05-22T09:21:01.480Z,16.50
2019-05-22T09:26:02.125Z,13.37
2019-05-22T09:28:31.416Z,18.07
2019-05-22T09:31:00.657Z,15.45
2019-05-22T09:33:30.365Z,18.45
2019-05-22T09:35:59.682Z,17.95
2019-05-22T09:38:29.253Z,15.58
2019-05-22T09:40:59.535Z,17.15
2019-05-22T09:43:28.695Z,16.82
2019-05-22T09:45:57.907Z,16.07
2019-05-22T09:48:27.086Z,14.87
2019-05-22T09:50:57.238Z,14.80
2019-05-22T09:53:27.146Z,14.50
2019-05-22T09:55:56.724Z,13.40
2019-05-22T09:58:25.980Z,15.53
2019-05-22T10:00:55.851Z,13.45
2019-05-22T10:03:25.191Z,15.30
2019-05-22T10:05:54.760Z,13.10
2019-05-22T10:08:23.934Z,13.68
2019-05-22T10:10:53.218Z,12.88
2019-05-22T10:13:23.855Z,12.63
2019-05-22T10:15:53.128Z,13.03
2019-05-22T10:18:22.552Z,12.20
2019-05-22T10:20:51.941Z,12.68
2019-05-22T10:23:22.356Z,13.23
2019-05-22T10:25:51.969Z,13.30
2019-05-22T10:28:21.609Z,12.60
2019-05-22T10:30:50.859Z,13.22
2019-05-22T10:33:20.123Z,14.20
2019-05-22T10:35:49.886Z,13.47
2019-05-22T10:38:19.252Z,14.15
2019-05-22T10:40:48.596Z,13.83
2019-05-22T10:43:17.789Z,13.25
2019-05-22T10:45:47.820Z,13.30
2019-05-22T10:48:17.114Z,13.15
2019-05-22T10:50:46.911Z,14.70
2019-05-22T10:53:32.452Z,13.28
2019-05-22T10:55:47.458Z,12.63
2019-05-22T10:58:16.870Z,13.60
2019-05-22T11:00:46.084Z,13.43
2019-05-22T11:03:15.797Z,13.48
2019-05-22T11:05:45.889Z,14.50
2019-05-22T11:08:15.513Z,12.78
2019-05-22T11:10:45.721Z,12.78
2019-05-22T11:13:15.109Z,12.07
2019-05-22T11:15:44.753Z,12.67
2019-05-22T11:18:14.317Z,10.43
2019-05-22T11:20:43.959Z,12.23
2019-05-22T11:23:13.381Z,13.48
2019-05-22T11:25:42.584Z,11.93
2019-05-22T11:28:11.900Z,12.82
2019-05-22T11:30:41.535Z,14.07
2019-05-22T11:33:11.194Z,11.87
2019-05-22T11:35:40.973Z,8.97
2019-05-22T11:38:11.582Z,9.40
2019-05-22T11:40:41.198Z,8.20
2019-05-22T11:43:13.046Z,8.87
2019-05-22T11:45:45.169Z,7.27
2019-05-22T11:58:10.964Z,13.73
2019-05-22T12:00:40.751Z,13.23
2019-05-22T12:05:39.018Z,14.55
2019-05-22T12:08:08.366Z,11.80
2019-05-22T12:10:38.507Z,12.63
2019-05-22T12:13:09.455Z,9.40
2019-05-22T12:15:40.315Z,7.20
2019-05-22T12:18:10.750Z,7.27
2019-05-22T12:20:39.970Z,9.80
2019-05-22T12:23:09.164Z,8.93
2019-05-22T12:25:38.386Z,7.57
2019-05-22T12:28:07.869Z,8.63
2019-05-22T12:30:37.889Z,16.37
2019-05-22T12:33:13.662Z,11.47
2019-05-22T12:35:41.166Z,10.37
2019-05-22T12:38:11.553Z,6.80
2019-05-22T12:40:41.696Z,8.83
2019-05-22T12:43:12.150Z,7.90
2019-05-22T12:45:41.443Z,10.03
2019-05-22T12:48:11.732Z,8.15
2019-05-22T12:50:41.054Z,8.10
2019-05-22T12:53:12.221Z,18.62
2019-05-22T12:55:41.818Z,6.73
2019-05-22T12:58:11.974Z,13.23
2019-05-22T13:00:41.181Z,10.23
2019-05-22T13:03:11.830Z,8.20
2019-05-22T13:05:41.455Z,8.43
2019-05-22T13:08:11.793Z,8.10
2019-05-22T13:10:41.533Z,7.20
2019-05-22T14:20:23.703Z,6.37
2019-05-22T14:22:53.087Z,6.20
2019-05-22T14:25:23.976Z,5.85
2019-05-22T14:27:53.419Z,5.30
2019-05-22T14:30:24.676Z,5.40
2019-05-22T14:32:53.962Z,4.43
2019-05-22T14:35:25.822Z,4.20
2019-05-22T14:37:56.205Z,4.10
2019-05-22T14:40:26.202Z,3.30
2019-05-22T14:42:55.505Z,4.20
2019-05-22T14:45:25.621Z,4.70
2019-05-22T14:47:55.380Z,4.60
2019-05-22T14:50:25.475Z,4.30
2019-05-22T14:52:54.961Z,7.08
2019-05-22T14:55:24.776Z,7.47
2019-05-22T14:57:54.781Z,6.80
2019-05-22T15:00:24.695Z,5.97
2019-05-22T15:02:57.840Z,6.37
2019-05-22T15:05:25.561Z,5.67
2019-05-22T15:07:54.739Z,5.50
2019-05-22T15:10:25.030Z,7.80
2019-05-22T15:12:54.379Z,7.57
2019-05-22T15:15:24.606Z,5.40
2019-05-22T15:17:53.913Z,5.00
2019-05-22T15:20:27.965Z,5.90
2019-05-22T15:22:57.732Z,5.90
2019-05-22T15:25:28.099Z,5.58
2019-05-22T15:27:57.404Z,5.73
2019-05-22T15:30:27.620Z,5.30
2019-05-22T15:32:57.395Z,5.35
2019-05-22T15:35:27.037Z,5.10
2019-05-22T15:37:57.149Z,5.75
2019-05-22T15:40:26.895Z,5.40
2019-05-22T15:42:56.668Z,6.30
2019-05-22T15:45:29.050Z,4.87
2019-05-22T15:48:01.841Z,6.30
2019-05-22T15:50:33.849Z,6.45
2019-05-22T15:53:08.677Z,6.28
2019-05-22T15:55:39.109Z,6.10
2019-05-22T15:58:09.738Z,5.50
2019-05-22T16:00:41.032Z,7.20
2019-05-22T16:03:13.597Z,6.72
2019-05-22T16:05:43.556Z,6.00
2019-05-22T16:08:14.823Z,6.62
2019-05-22T16:10:46.581Z,6.30
2019-05-22T16:13:19.232Z,6.87
2019-05-22T16:15:49.839Z,6.55
2019-05-22T16:18:22.177Z,7.17
2019-05-22T16:20:51.812Z,6.78
2019-05-22T16:23:22.222Z,5.80
2019-05-22T16:25:52.744Z,4.95
2019-05-22T16:28:23.343Z,4.65
2019-05-22T16:30:53.624Z,5.47
2019-05-22T16:33:24.820Z,5.37
2019-05-22T16:35:54.326Z,5.20
2019-05-22T16:38:25.491Z,5.03
2019-05-22T16:40:55.585Z,4.60
2019-05-22T16:43:46.794Z,5.20
2019-05-22T16:45:58.179Z,4.25
2019-05-22T16:48:29.844Z,4.87
2019-05-22T16:50:59.212Z,4.90
2019-05-22T16:53:29.054Z,5.50
2019-05-22T16:55:59.305Z,5.00
2019-05-22T16:58:29.615Z,5.20
2019-05-22T17:01:00.042Z,5.37
2019-05-22T17:03:30.087Z,5.10
2019-05-22T17:06:00.195Z,5.17
2019-05-22T17:08:30.350Z,5.30
2019-05-22T17:11:01.562Z,5.47
2019-05-22T17:13:32.405Z,4.37
2019-05-22T17:16:03.719Z,4.95
2019-05-22T17:18:46.550Z,4.50
2019-05-22T17:21:06.548Z,5.37
2019-05-22T17:23:36.076Z,5.35
2019-05-22T17:26:06.826Z,5.28
2019-05-22T17:28:36.165Z,5.50
2019-05-22T17:31:07.305Z,3.87
2019-05-22T17:33:36.593Z,5.08
2019-05-22T17:36:06.804Z,5.15
2019-05-22T17:38:36.742Z,5.55
2019-05-22T17:41:07.579Z,5.50
2019-05-22T17:51:05.249Z,6.08
2019-05-22T17:53:35.790Z,6.10
2019-05-22T17:56:05.428Z,6.25
2019-05-22T17:58:35.264Z,6.10
2019-05-22T18:01:06.495Z,6.17
2019-05-22T18:03:35.791Z,6.00
2019-05-22T18:06:07.429Z,5.45
2019-05-22T18:08:37.209Z,5.33
2019-05-22T18:11:16.452Z,5.30
2019-05-22T18:13:59.312Z,5.60
2019-05-22T18:16:32.571Z,5.50
2019-05-22T18:19:02.376Z,4.73
2019-05-22T18:21:32.284Z,5.90
2019-05-22T18:24:01.965Z,6.22
2019-05-22T18:26:31.303Z,5.55
2019-05-22T18:29:00.562Z,5.40
2019-05-22T18:31:30.476Z,6.83
2019-05-22T18:33:59.733Z,6.00
2019-05-22T18:36:29.057Z,6.00
2019-05-22T18:38:58.451Z,5.92
2019-05-22T18:41:27.987Z,6.15
2019-05-22T18:43:58.486Z,6.28
2019-05-22T18:46:28.417Z,4.70
2019-05-22T18:48:57.789Z,4.40
2019-05-22T18:51:27.237Z,6.80
2019-05-22T18:53:56.650Z,5.20
2019-05-22T18:56:26.345Z,6.20
2019-05-22T18:58:55.681Z,6.40
2019-05-22T19:01:25.075Z,7.17
2019-05-22T19:03:54.584Z,6.42
2019-05-22T19:06:30.382Z,7.22
2019-05-22T19:08:55.032Z,6.40
2019-05-22T19:11:24.256Z,7.07
2019-05-22T19:16:22.615Z,5.30
2019-05-22T19:18:52.145Z,5.23
2019-05-22T19:26:18.067Z,4.90
2019-05-22T19:28:47.694Z,5.07
2019-05-22T19:31:17.270Z,4.70
2019-05-22T19:33:46.985Z,4.57
2019-05-22T19:36:16.151Z,8.77
2019-05-22T19:38:46.054Z,7.90
2019-05-22T19:41:15.357Z,6.87
2019-05-22T19:43:44.624Z,10.48
2019-05-22T19:46:14.322Z,8.38
2019-05-22T19:48:43.941Z,10.95
2019-05-22T19:51:16.125Z,9.45
2019-05-22T19:53:45.827Z,8.27
2019-05-22T19:56:16.917Z,7.95
2019-05-22T19:58:48.169Z,7.80
2019-05-22T20:01:18.977Z,9.60
2019-05-22T20:03:48.302Z,11.28
2019-05-22T20:06:18.471Z,11.63
2019-05-22T20:08:47.824Z,11.38
2019-05-22T20:11:17.036Z,10.40
2019-05-22T20:16:14.763Z,9.63
2019-05-22T20:18:44.325Z,6.73
2019-05-22T20:21:13.695Z,11.87
2019-05-22T20:28:42.801Z,7.97
2019-05-22T20:33:40.519Z,13.05
2019-05-22T20:36:10.923Z,13.60
2019-05-22T20:38:40.192Z,15.10
2019-05-22T20:41:09.703Z,12.47
2019-05-22T20:43:40.631Z,14.65
2019-05-22T20:46:11.173Z,14.75
2019-05-22T20:48:41.794Z,15.32
2019-05-22T20:51:14.260Z,17.37
2019-05-22T20:53:54.228Z,15.38
2019-05-22T20:56:18.286Z,16.02
2019-05-22T20:58:48.086Z,17.57
2019-05-22T21:01:18.191Z,16.60
2019-05-22T21:03:49.652Z,12.85
2019-05-22T21:06:22.119Z,13.43
2019-05-22T21:08:51.551Z,18.20
2019-05-22T21:11:25.187Z,13.50
2019-05-22T21:13:54.578Z,12.05
2019-05-22T21:16:23.808Z,10.65
2019-05-22T21:18:54.760Z,11.45
2019-05-22T21:21:25.147Z,14.30
2019-05-22T21:24:09.368Z,13.77
2019-05-22T21:26:26.972Z,12.30
2019-05-22T21:28:57.085Z,10.93
2019-05-22T21:31:26.951Z,12.58
2019-05-22T21:33:56.833Z,15.13
2019-05-22T21:36:26.620Z,13.67
2019-05-22T21:38:56.059Z,11.73
2019-05-22T21:41:25.296Z,13.53
2019-05-22T21:43:55.355Z,13.75
2019-05-22T21:46:24.815Z,10.50
2019-05-22T21:48:56.140Z,10.48
2019-05-22T21:51:25.508Z,10.20
2019-05-22T21:53:55.673Z,13.93
2019-05-22T21:56:25.889Z,11.93
2019-05-22T21:58:56.029Z,12.00
2019-05-22T22:01:32.461Z,12.20
2019-05-22T22:04:09.027Z,12.00
2019-05-22T22:06:38.592Z,12.60
2019-05-22T22:09:08.799Z,10.70
2019-05-22T22:11:38.557Z,10.82
2019-05-22T22:14:09.009Z,13.03
2019-05-22T22:16:41.152Z,11.63
2019-05-22T22:19:11.599Z,11.85
2019-05-22T22:21:41.505Z,12.30
2019-05-22T22:24:11.750Z,11.80
2019-05-22T22:26:41.158Z,13.10
2019-05-22T22:29:10.774Z,12.65
2019-05-22T22:31:41.726Z,9.80
2019-05-22T22:34:23.473Z,14.15
2019-05-22T22:36:52.951Z,11.63
2019-05-22T22:39:23.189Z,11.05
2019-05-22T22:41:53.467Z,12.37
2019-05-22T22:44:23.271Z,12.28
2019-05-22T22:47:03.035Z,13.35
2019-05-22T22:49:32.659Z,12.35
2019-05-22T22:52:02.760Z,11.30
2019-05-22T22:54:32.172Z,10.98
2019-05-22T22:57:02.235Z,10.25
2019-05-22T22:59:32.218Z,11.68
2019-05-22T23:02:05.141Z,10.90
2019-05-22T23:04:35.326Z,11.10
2019-05-22T23:07:07.637Z,11.17
2019-05-22T23:14:37.731Z,12.47
2019-05-22T23:17:08.638Z,12.70
2019-05-22T23:19:38.579Z,11.37
2019-05-22T23:22:08.293Z,11.57
2019-05-22T23:24:38.950Z,11.05
2019-05-22T23:27:10.226Z,10.63
2019-05-22T23:29:40.490Z,10.50
2019-05-22T23:32:11.770Z,14.80
2019-05-22T23:34:41.541Z,16.85
2019-05-22T23:37:13.013Z,11.68
2019-05-22T23:39:42.216Z,10.75
2019-05-22T23:42:14.580Z,11.88
2019-05-22T23:44:44.890Z,11.18
2019-05-22T23:47:15.679Z,12.68
2019-05-22T23:49:45.796Z,12.23
2019-05-22T23:52:17.426Z,9.60
2019-05-22T23:54:48.319Z,14.33
2019-05-22T23:57:18.336Z,9.45
2019-05-22T23:59:50.661Z,10.40
